Time;durP1;ratioP1;P1;durP2;ratioP2;P2;SDS_P1;SDS_P2;PMS_P1;PMS_P2;Temp;Humidity;BMP_temperature;BMP_pressure;BME280_temperature;BME280_humidity;BME280_pressure;Samples;Min_cycle;Max_cycle;Signal;HPM_P1;HPM_P2
2021/08/01 00:00:23;;;;;;;31.00;11.50;;;;;;;14.76;96.49;101026.34;6217278;23;20453;-77
2021/08/01 00:02:48;;;;;;;37.03;12.60;;;;;;;14.76;96.73;101029.00;6215671;23;20502;-81
2021/08/01 00:05:14;;;;;;;34.00;12.02;;;;;;;14.73;96.38;101023.69;6217306;23;20009;-80
2021/08/01 00:07:40;;;;;;;39.72;12.23;;;;;;;14.73;96.45;101023.69;6216837;23;20020;-80
2021/08/01 00:10:26;;;;;;;31.58;12.00;;;;;;;14.73;96.25;101022.78;6216723;23;20040;-81
2021/08/01 00:12:51;;;;;;;28.83;11.25;;;;;;;14.71;96.29;101020.13;6216491;23;20369;-79
2021/08/01 00:15:17;;;;;;;28.48;12.18;;;;;;;14.69;96.27;101024.56;6216189;23;20032;-83
2021/08/01 00:17:42;;;;;;;33.08;10.70;;;;;;;14.67;95.98;101019.25;6216194;23;20008;-83
2021/08/01 00:20:08;;;;;;;32.72;10.68;;;;;;;14.66;95.93;101022.78;6216707;23;20001;-83
2021/08/01 00:22:34;;;;;;;28.45;11.15;;;;;;;14.63;95.90;101016.59;6216394;23;20009;-82
2021/08/01 00:25:39;;;;;;;32.95;10.85;;;;;;;14.61;95.87;101018.31;6216464;23;20079;-80
2021/08/01 00:28:07;;;;;;;30.98;10.95;;;;;;;14.58;96.18;101010.34;6216446;23;20408;-81
2021/08/01 00:30:32;;;;;;;22.40;9.73;;;;;;;14.56;96.03;101015.66;6216666;23;20036;-77
2021/08/01 00:32:58;;;;;;;32.70;10.25;;;;;;;14.54;95.97;101006.84;6216228;23;20432;-80
2021/08/01 00:35:23;;;;;;;32.05;10.38;;;;;;;14.54;95.99;101011.22;6216834;23;20084;-80
2021/08/01 00:37:49;;;;;;;34.28;10.98;;;;;;;14.53;96.10;101017.41;6216235;23;20428;-81
2021/08/01 00:40:17;;;;;;;31.65;11.13;;;;;;;14.49;95.82;101009.44;6216261;23;20035;-83
2021/08/01 00:42:42;;;;;;;18.75;8.02;;;;;;;14.48;95.87;101007.69;6217076;23;20000;-81
2021/08/01 00:45:28;;;;;;;24.70;10.13;;;;;;;14.47;95.73;101005.94;6216609;23;20075;-78
2021/08/01 00:47:54;;;;;;;17.15;9.63;;;;;;;14.43;95.68;101006.81;6217085;23;20368;-80
2021/08/01 00:50:20;;;;;;;26.33;9.73;;;;;;;14.41;95.80;101013.84;6216662;23;20011;-82
2021/08/01 00:52:49;;;;;;;24.35;9.93;;;;;;;14.38;95.80;101011.19;6216646;23;20320;-79
2021/08/01 00:55:15;;;;;;;24.88;9.70;;;;;;;14.33;95.67;101002.34;6216787;23;20458;-80
2021/08/01 00:57:40;;;;;;;22.20;9.07;;;;;;;14.30;95.71;101005.00;6216577;23;20000;-80
2021/08/01 01:03:20;;;;;;;20.83;9.02;;;;;;;14.29;96.09;101005.84;6215973;23;20013;-82
2021/08/01 01:05:52;;;;;;;30.67;9.45;;;;;;;14.30;95.92;101005.00;6216170;23;20087;-77
2021/08/01 01:08:57;;;;;;;22.13;8.95;;;;;;;14.27;96.04;101002.31;6216437;23;20016;-78
2021/08/01 01:11:46;;;;;;;26.98;10.00;;;;;;;14.27;96.50;101003.22;6215269;23;20009;-80
2021/08/01 01:14:20;;;;;;;26.48;9.63;;;;;;;14.29;96.07;100996.16;6214737;23;20032;-79
2021/08/01 01:16:50;;;;;;;21.65;9.80;;;;;;;14.30;96.16;100992.63;6216189;23;20008;-84
2021/08/01 01:19:56;;;;;;;31.80;9.73;;;;;;;14.31;96.45;100988.19;6216714;23;20005;-83
2021/08/01 01:22:31;;;;;;;29.45;9.82;;;;;;;14.32;96.67;100980.28;6216353;23;20324;-80
2021/08/01 01:24:57;;;;;;;27.35;9.85;;;;;;;14.32;97.00;100989.97;6216157;23;20008;-83
2021/08/01 01:27:52;;;;;;;22.10;9.77;;;;;;;14.37;96.98;100988.25;6216272;23;20008;-82
2021/08/01 01:30:18;;;;;;;36.17;11.93;;;;;;;14.41;97.08;100992.66;6214111;23;20071;-79
2021/08/01 01:33:08;;;;;;;33.67;12.05;;;;;;;14.43;97.34;100988.28;6215638;23;20013;-77
2021/08/01 01:35:38;;;;;;;36.95;12.27;;;;;;;14.46;97.25;100982.06;6214976;23;20023;-83
2021/08/01 01:38:25;;;;;;;37.75;13.68;;;;;;;14.52;97.28;100986.53;6215913;23;20040;-78
2021/08/01 01:41:11;;;;;;;39.05;13.95;;;;;;;14.57;97.43;100984.75;6215490;23;20054;-85
2021/08/01 01:43:37;;;;;;;46.45;15.65;;;;;;;14.61;97.10;100989.16;6215967;23;20033;-83
2021/08/01 01:46:03;;;;;;;31.27;13.18;;;;;;;14.62;97.36;100983.00;6216037;23;20019;-82
2021/08/01 01:48:29;;;;;;;33.88;13.02;;;;;;;14.62;97.43;100978.59;6215833;23;20011;-79
2021/08/01 01:50:55;;;;;;;34.92;13.63;;;;;;;14.66;97.43;100974.22;6216095;23;20000;-83
2021/08/01 01:53:21;;;;;;;41.40;14.45;;;;;;;14.66;97.34;100983.06;6215812;23;20082;-80
2021/08/01 01:55:50;;;;;;;41.22;14.00;;;;;;;14.69;97.20;100983.94;6216233;23;20019;-82
2021/08/01 01:58:16;;;;;;;41.22;13.30;;;;;;;14.72;97.33;100973.34;6216452;23;20001;-81
2021/08/01 02:00:44;;;;;;;35.25;13.90;;;;;;;14.74;97.32;100980.41;6216168;23;20009;-81
2021/08/01 02:03:10;;;;;;;41.45;14.82;;;;;;;14.77;97.22;100975.13;6216414;23;20004;-82
2021/08/01 02:05:35;;;;;;;35.38;13.40;;;;;;;14.80;97.25;100971.59;6215601;23;20012;-80
2021/08/01 02:08:01;;;;;;;35.85;12.30;;;;;;;14.82;97.26;100972.47;6215758;23;20340;-82
2021/08/01 02:10:33;;;;;;;38.63;12.57;;;;;;;14.83;97.08;100980.41;6216623;23;20001;-83
2021/08/01 02:13:03;;;;;;;36.90;11.30;;;;;;;14.87;97.11;100972.47;6216478;23;19996;-83
2021/08/01 02:15:51;;;;;;;31.40;10.30;;;;;;;14.89;96.99;100963.63;6218258;23;20016;-80
2021/08/01 02:18:34;;;;;;;41.20;11.30;;;;;;;14.90;96.91;100967.19;6217334;23;20013;-79
2021/08/01 02:21:01;;;;;;;30.20;10.57;;;;;;;14.91;96.88;100966.31;6191817;23;20015;-82
2021/08/01 02:23:31;;;;;;;37.58;10.75;;;;;;;14.95;97.14;100970.75;6217372;23;20004;-78
2021/08/01 02:26:19;;;;;;;36.63;11.00;;;;;;;14.97;97.10;100968.97;6217712;23;20478;-77
2021/08/01 02:29:09;;;;;;;36.78;10.80;;;;;;;14.99;97.13;100973.38;6217734;23;20017;-80
2021/08/01 02:31:35;;;;;;;35.97;10.43;;;;;;;15.02;96.96;100972.50;6191193;23;20011;-79
2021/08/01 02:34:00;;;;;;;31.50;9.52;;;;;;;15.03;97.09;100974.28;6218141;23;20009;-81
2021/08/01 02:36:26;;;;;;;37.45;11.55;;;;;;;15.04;96.99;100970.72;6217675;23;20028;-82
2021/08/01 02:38:58;;;;;;;36.10;11.90;;;;;;;15.06;97.11;100976.91;6218079;23;20008;-82
2021/08/01 02:41:35;;;;;;;34.63;12.57;;;;;;;15.08;97.02;100969.81;6218166;23;20019;-81
2021/08/01 02:44:46;;;;;;;36.05;12.15;;;;;;;15.10;96.86;100962.78;6218371;23;20016;-85
2021/08/01 02:47:34;;;;;;;33.60;12.05;;;;;;;15.10;96.67;100970.72;6216761;23;20110;-81
2021/08/01 02:50:21;;;;;;;40.45;13.43;;;;;;;15.07;96.41;100965.44;6216515;23;20012;-82
2021/08/01 02:53:10;;;;;;;28.13;12.38;;;;;;;15.05;96.33;100967.19;6218004;23;20000;-80
2021/08/01 02:55:41;;;;;;;33.33;12.98;;;;;;;15.01;96.13;100960.13;6218367;23;20071;-84
2021/08/01 02:58:27;;;;;;;39.22;13.18;;;;;;;15.03;96.03;100968.97;6192208;23;20020;-83
2021/08/01 03:00:53;;;;;;;38.15;13.65;;;;;;;14.99;96.00;100960.13;6217978;23;20012;-82
2021/08/01 03:03:39;;;;;;;36.00;14.18;;;;;;;14.95;95.91;100957.50;6217898;23;20004;-84
2021/08/01 03:06:07;;;;;;;33.50;14.57;;;;;;;14.91;95.96;100958.38;6216668;23;20012;-80
2021/08/01 03:08:33;;;;;;;33.45;14.20;;;;;;;14.91;95.85;100958.38;6217160;23;20391;-78
2021/08/01 03:11:00;;;;;;;40.53;14.45;;;;;;;14.87;95.91;100960.13;6190882;23;20056;-76
2021/08/01 03:13:26;;;;;;;39.25;15.20;;;;;;;14.81;96.09;100952.16;6217924;23;20012;-84
2021/08/01 03:15:52;;;;;;;42.53;15.05;;;;;;;14.79;96.25;100952.16;6217527;23;20005;-86
2021/08/01 03:18:18;;;;;;;46.10;16.33;;;;;;;14.75;96.27;100953.03;6217477;23;20008;-83
2021/08/01 03:21:03;;;;;;;38.58;15.30;;;;;;;14.73;96.41;100949.53;6217780;23;20020;-81
2021/08/01 03:23:28;;;;;;;44.80;16.42;;;;;;;14.68;96.53;100948.63;6217517;23;20000;-82
2021/08/01 03:25:54;;;;;;;48.83;16.00;;;;;;;14.65;96.57;100951.28;6216052;23;20015;-80
2021/08/01 03:28:19;;;;;;;46.20;17.58;;;;;;;14.63;96.82;100960.97;6216931;23;20020;-82
2021/08/01 03:31:25;;;;;;;50.70;17.08;;;;;;;14.57;97.24;100956.53;6216925;23;20013;-81
2021/08/01 03:34:10;;;;;;;49.00;17.08;;;;;;;14.57;96.98;100955.63;6215996;23;20011;-79
2021/08/01 03:36:35;;;;;;;49.10;17.77;;;;;;;14.54;97.11;100958.28;6216513;23;20091;-79
2021/08/01 03:39:21;;;;;;;48.90;17.27;;;;;;;14.52;96.92;100952.09;6217377;23;20005;-80
2021/08/01 03:41:46;;;;;;;50.10;17.95;;;;;;;14.50;97.09;100958.28;6216487;23;20012;-79
2021/08/01 03:44:12;;;;;;;55.15;19.05;;;;;;;14.48;96.98;100952.06;6217670;23;20047;-81
2021/08/01 03:46:38;;;;;;;46.30;17.88;;;;;;;14.48;97.43;100954.72;6218036;23;20000;-83
2021/08/01 03:49:04;;;;;;;49.25;17.98;;;;;;;14.48;97.42;100962.66;6217222;23;20015;-82
2021/08/01 03:51:29;;;;;;;53.30;20.58;;;;;;;14.48;97.55;100959.16;6217203;23;20004;-80
2021/08/01 03:54:14;;;;;;;58.90;19.75;;;;;;;14.46;97.53;100961.78;6216937;23;20009;-81
2021/08/01 03:56:43;;;;;;;48.75;19.70;;;;;;;14.48;97.66;100960.00;6217238;23;20009;-83
2021/08/01 03:59:13;;;;;;;54.90;20.95;;;;;;;14.50;97.64;100962.66;6217159;23;20483;-77
2021/08/01 04:01:58;;;;;;;61.63;20.52;;;;;;;14.55;97.83;100960.91;6216679;23;20000;-80
2021/08/01 04:04:24;;;;;;;52.40;20.38;;;;;;;14.56;97.67;100969.75;6216748;23;20019;-78
2021/08/01 04:06:49;;;;;;;62.83;21.10;;;;;;;14.60;97.76;100963.59;6216388;23;20004;-81
2021/08/01 04:09:34;;;;;;;63.80;21.00;;;;;;;14.61;97.68;100960.03;6217067;23;20083;-83
2021/08/01 04:12:00;;;;;;;59.88;21.30;;;;;;;14.62;97.76;100965.38;6217237;23;20502;-85
2021/08/01 04:14:25;;;;;;;57.40;19.88;;;;;;;14.65;97.48;100967.16;6217373;23;19996;-78
2021/08/01 04:16:51;;;;;;;64.82;19.50;;;;;;;14.70;97.69;100970.69;6216939;23;20012;-84
2021/08/01 04:19:37;;;;;;;62.83;20.67;;;;;;;14.70;97.45;100970.69;6217036;23;20011;-81
2021/08/01 04:22:05;;;;;;;57.78;19.65;;;;;;;14.73;97.34;100965.41;6216290;23;20004;-80
2021/08/01 04:24:31;;;;;;;58.35;20.00;;;;;;;14.76;97.23;100972.44;6217074;23;20011;-80
2021/08/01 04:26:56;;;;;;;59.90;20.67;;;;;;;14.80;97.32;100971.59;6216749;23;20005;-85
2021/08/01 04:29:22;;;;;;;49.22;19.55;;;;;;;14.87;96.87;100968.06;6217294;23;20128;-79
2021/08/01 04:31:47;;;;;;;61.35;21.77;;;;;;;14.87;96.81;100969.81;6216419;23;20056;-79
2021/08/01 04:34:16;;;;;;;58.85;22.10;;;;;;;14.90;97.15;100983.09;6216641;23;20055;-81
2021/08/01 04:36:41;;;;;;;67.32;23.17;;;;;;;14.90;97.20;100977.78;6216146;23;20060;-82
2021/08/01 04:39:08;;;;;;;57.05;21.13;;;;;;;14.92;97.66;100971.63;6216398;23;20355;-83
2021/08/01 04:41:33;;;;;;;63.28;22.77;;;;;;;14.91;97.53;100971.63;6189592;23;20019;-81
2021/08/01 04:44:19;;;;;;;63.05;22.33;;;;;;;14.93;97.65;100975.13;6216530;23;20029;-79
2021/08/01 04:46:44;;;;;;;71.60;24.02;;;;;;;14.89;97.66;100973.38;6188807;23;20152;-79
2021/08/01 04:49:10;;;;;;;69.22;23.90;;;;;;;14.89;97.89;100974.25;6216143;23;20028;-81
2021/08/01 04:51:35;;;;;;;76.88;24.20;;;;;;;14.87;97.94;100972.47;6216015;23;20008;-80
2021/08/01 04:54:01;;;;;;;70.75;23.85;;;;;;;14.87;97.94;100967.16;6215674;23;20008;-82
2021/08/01 04:56:26;;;;;;;69.05;25.50;;;;;;;14.87;98.06;100972.47;6215981;23;20068;-79
2021/08/01 04:58:52;;;;;;;77.55;26.60;;;;;;;14.84;98.11;100968.94;6215601;23;20009;-79
2021/08/01 05:01:20;;;;;;;82.00;26.02;;;;;;;14.84;98.50;100971.59;6189712;23;20008;-81
2021/08/01 05:03:45;;;;;;;69.30;24.58;;;;;;;14.88;98.41;100975.16;6215549;23;20004;-80
2021/08/01 05:06:16;;;;;;;80.80;27.67;;;;;;;14.92;98.47;100970.72;6189237;23;20019;-83
2021/08/01 05:08:42;;;;;;;85.68;25.58;;;;;;;14.92;98.65;100976.00;6215654;23;20020;-78
2021/08/01 05:11:07;;;;;;;72.03;25.33;;;;;;;14.96;98.56;100978.69;6215555;23;20012;-79
2021/08/01 05:13:33;;;;;;;66.65;24.23;;;;;;;15.00;98.70;100974.25;6215125;23;20080;-84
2021/08/01 05:15:59;;;;;;;64.13;25.48;;;;;;;15.02;98.54;100969.84;6215608;23;20004;-84
2021/08/01 05:18:25;;;;;;;65.28;26.17;;;;;;;15.07;98.61;100968.09;6215442;23;20008;-81
2021/08/01 05:20:50;;;;;;;74.90;26.77;;;;;;;15.09;98.48;100971.59;6189343;23;20024;-80
2021/08/01 05:23:18;;;;;;;75.38;27.33;;;;;;;15.09;98.35;100963.66;6189359;23;20059;-80
2021/08/01 05:25:44;;;;;;;66.47;26.13;;;;;;;15.11;98.35;100974.25;6216026;23;20471;-79
2021/08/01 05:28:10;;;;;;;75.70;26.08;;;;;;;15.11;98.29;100972.50;6215633;23;20004;-79
2021/08/01 05:30:35;;;;;;;69.05;25.60;;;;;;;15.12;98.11;100965.41;6215773;23;20359;-83
2021/08/01 05:33:07;;;;;;;76.93;25.90;;;;;;;15.09;97.98;100966.31;6214801;23;20016;-84
2021/08/01 05:35:52;;;;;;;65.30;24.48;;;;;;;15.09;97.92;100958.34;6215826;23;20009;-80
2021/08/01 05:38:22;;;;;;;55.90;24.85;;;;;;;15.07;97.71;100954.84;6214658;23;20075;-85
2021/08/01 05:40:53;;;;;;;55.80;23.17;;;;;;;15.08;97.71;100953.94;6213693;23;20012;-82
2021/08/01 05:43:41;;;;;;;64.93;24.08;;;;;;;15.05;97.64;100958.38;6215966;23;20000;-82
2021/08/01 05:46:12;;;;;;;57.95;22.00;;;;;;;15.09;97.53;100960.13;6215674;23;20016;-80
2021/08/01 05:48:38;;;;;;;66.18;24.23;;;;;;;15.10;97.71;100965.44;6214493;23;20344;-82
2021/08/01 05:51:19;;;;;;;63.53;24.35;;;;;;;15.12;97.63;100963.63;6215413;23;20013;-80
2021/08/01 05:53:45;;;;;;;72.97;26.50;;;;;;;15.14;98.05;100961.88;6215135;23;20036;-79
2021/08/01 05:56:13;;;;;;;69.10;27.17;;;;;;;15.16;98.19;100964.53;6215448;23;20007;-82
2021/08/01 05:58:40;;;;;;;69.95;26.48;;;;;;;15.24;98.25;100967.19;6215185;23;20332;-78
2021/08/01 06:01:09;;;;;;;63.50;26.80;;;;;;;15.40;98.41;100963.63;6214839;23;20490;-81
2021/08/01 06:03:35;;;;;;;63.88;27.88;;;;;;;15.49;98.46;100968.94;6215361;23;20063;-82
2021/08/01 06:06:29;;;;;;;68.00;29.35;;;;;;;15.79;98.24;100972.41;6215078;23;20008;-79
2021/08/01 06:08:56;;;;;;;64.63;26.83;;;;;;;16.01;97.70;100967.03;6211319;23;20084;-82
2021/08/01 06:11:22;;;;;;;48.60;23.48;;;;;;;16.25;97.03;100971.38;6215463;23;20001;-82
2021/08/01 06:13:49;;;;;;;46.90;23.63;;;;;;;16.63;95.97;100966.72;6213232;23;20009;-79
2021/08/01 06:16:15;;;;;;;37.90;21.95;;;;;;;16.97;93.17;100961.19;6216230;23;20023;-79
2021/08/01 06:19:02;;;;;;;33.95;20.88;;;;;;;17.33;92.14;100948.47;6215272;23;20353;-78
2021/08/01 06:21:30;;;;;;;36.42;21.50;;;;;;;17.60;90.53;100957.06;6215034;23;20012;-79
2021/08/01 06:24:18;;;;;;;32.55;20.35;;;;;;;17.67;89.17;100958.75;6215170;23;20004;-83
2021/08/01 06:26:44;;;;;;;35.78;21.70;;;;;;;17.65;90.15;100964.09;6214970;23;20450;-80
2021/08/01 06:29:10;;;;;;;36.65;20.92;;;;;;;17.70;90.15;100966.69;6215260;23;20027;-84
2021/08/01 06:31:36;;;;;;;34.13;22.73;;;;;;;17.69;90.95;100971.16;6215684;23;20013;-78
2021/08/01 06:34:13;;;;;;;39.55;24.80;;;;;;;17.61;90.49;100969.47;6215147;23;20005;-81
2021/08/01 06:36:38;;;;;;;51.55;28.25;;;;;;;17.48;90.70;100969.59;6215457;23;20420;-82
2021/08/01 06:39:07;;;;;;;45.17;28.17;;;;;;;17.51;90.22;100977.56;6215612;23;20011;-81
2021/08/01 06:41:52;;;;;;;41.38;26.52;;;;;;;17.64;90.31;100974.75;6215372;23;20332;-80
2021/08/01 06:44:38;;;;;;;39.05;26.02;;;;;;;17.58;89.95;100972.16;6215509;23;20008;-82
2021/08/01 06:47:43;;;;;;;;;;;;;;;;;;;;;
2021/08/01 06:51:13;;;;;;;41.72;25.83;;;;;;;17.10;90.34;100984.13;6206008;23;20080;-81
2021/08/01 06:54:07;;;;;;;49.60;26.65;;;;;;;16.83;91.72;100982.53;6140733;23;20071;-81
2021/08/01 07:00:35;;;;;;;40.67;23.63;;;;;;;16.39;93.71;101005.81;6191595;23;20012;-83
2021/08/01 07:03:39;;;;;;;33.88;20.50;;;;;;;16.24;94.07;101008.56;6217363;23;20000;-83
2021/08/01 07:07:05;;;;;;;41.33;23.67;;;;;;;16.14;94.46;100994.41;6133593;23;20048;-84
2021/08/01 07:10:03;;;;;;;19.92;13.60;;;;;;;15.89;93.82;100989.19;6152989;23;20072;-86
2021/08/01 07:13:00;;;;;;;14.70;9.57;;;;;;;15.75;94.43;100996.25;6153638;23;20152;-87
2021/08/01 07:15:48;;;;;;;12.93;8.55;;;;;;;15.63;94.96;100989.25;6129672;23;20013;-86
2021/08/01 07:18:36;;;;;;;15.38;8.60;;;;;;;15.54;94.56;101002.50;6152268;23;20322;-83
2021/08/01 07:21:04;;;;;;;14.93;9.07;;;;;;;15.48;95.11;101004.28;6153449;23;20005;-84
2021/08/01 07:24:00;;;;;;;14.90;10.00;;;;;;;15.51;95.82;101006.91;6153768;23;20472;-83
2021/08/01 07:26:27;;;;;;;28.92;16.15;;;;;;;15.60;96.43;101005.13;6153402;23;20010;-83
2021/08/01 07:28:53;;;;;;;28.75;16.95;;;;;;;15.67;96.98;101009.56;6153529;23;20064;-83
2021/08/01 07:31:18;;;;;;;27.17;16.35;;;;;;;15.74;97.27;101008.66;6208533;23;20012;-82
2021/08/01 07:33:44;;;;;;;25.92;16.55;;;;;;;15.80;97.20;101008.69;6216898;23;20349;-81
2021/08/01 07:36:29;;;;;;;22.00;14.23;;;;;;;15.86;97.11;101010.44;6217354;23;20016;-82
2021/08/01 07:38:55;;;;;;;19.60;13.48;;;;;;;15.91;97.01;101013.06;6216857;23;20015;-80
2021/08/01 07:41:20;;;;;;;19.75;12.80;;;;;;;15.98;97.09;101017.50;6217077;23;20005;-83
2021/08/01 07:43:46;;;;;;;20.52;12.73;;;;;;;16.09;97.30;101013.03;6217044;23;20055;-82
2021/08/01 07:46:12;;;;;;;25.48;13.43;;;;;;;16.26;97.25;101010.28;6217627;23;20020;-79
2021/08/01 07:48:38;;;;;;;19.38;12.77;;;;;;;16.47;96.93;101006.66;6205697;23;20008;-80
2021/08/01 07:51:03;;;;;;;13.88;10.40;;;;;;;16.70;95.42;101005.66;6215429;23;20317;-80
2021/08/01 07:53:29;;;;;;;13.15;10.00;;;;;;;16.93;94.73;101007.28;6215953;23;19997;-82
2021/08/01 07:55:54;;;;;;;12.70;9.73;;;;;;;17.00;93.44;101009.91;6216115;23;20017;-81
2021/08/01 07:58:20;;;;;;;12.05;9.70;;;;;;;16.96;93.20;101013.47;6216312;23;20004;-78
2021/08/01 08:00:48;;;;;;;13.75;11.43;;;;;;;16.83;92.80;101006.44;6215867;23;20005;-80
2021/08/01 08:03:13;;;;;;;17.63;10.85;;;;;;;16.80;92.77;101004.69;6216746;23;20000;-78
2021/08/01 08:05:59;;;;;;;18.33;12.50;;;;;;;16.78;94.32;101006.47;6216125;23;20006;-79
2021/08/01 08:08:24;;;;;;;14.13;11.38;;;;;;;16.80;93.97;101014.44;6214858;23;20025;-78
2021/08/01 08:10:50;;;;;;;21.00;12.05;;;;;;;16.78;93.41;101005.59;6208157;23;20032;-82
2021/08/01 08:13:23;;;;;;;18.02;12.57;;;;;;;16.76;94.07;101012.69;6214894;23;20031;-80
2021/08/01 08:15:49;;;;;;;13.20;11.15;;;;;;;16.72;93.86;101014.47;6214699;23;20012;-81
2021/08/01 08:18:15;;;;;;;12.38;9.68;;;;;;;16.71;93.81;101006.53;6214931;23;20016;-81
2021/08/01 08:20:41;;;;;;;13.85;10.82;;;;;;;16.72;94.17;101014.47;6215458;23;20012;-79
2021/08/01 08:23:09;;;;;;;14.18;9.00;;;;;;;16.77;93.64;101014.47;6215366;23;20424;-82
2021/08/01 08:25:35;;;;;;;12.23;9.77;;;;;;;16.81;93.60;101014.44;6212232;23;20015;-83
2021/08/01 08:28:03;;;;;;;11.07;9.00;;;;;;;16.83;93.60;101017.97;6214793;23;20080;-82
2021/08/01 08:30:48;;;;;;;12.40;8.50;;;;;;;16.85;92.98;101020.63;6213925;23;20087;-81
2021/08/01 08:33:17;;;;;;;15.63;9.43;;;;;;;16.89;94.10;101026.78;6213478;23;20397;-82
2021/08/01 08:35:42;;;;;;;16.48;10.25;;;;;;;16.89;93.94;101021.47;6215091;23;20083;-79
2021/08/01 08:38:08;;;;;;;16.02;9.80;;;;;;;16.92;94.12;101026.81;6212240;23;20027;-81
2021/08/01 08:40:39;;;;;;;14.88;10.07;;;;;;;17.09;94.69;101034.66;6214318;23;20015;-79
2021/08/01 08:43:25;;;;;;;15.27;10.50;;;;;;;17.36;94.56;101033.53;6213684;23;20005;-81
2021/08/01 08:45:52;;;;;;;13.52;8.73;;;;;;;17.39;91.72;101033.53;6211816;23;20008;-80
2021/08/01 08:48:18;;;;;;;11.82;7.75;;;;;;;17.40;91.38;101031.75;6214345;23;20013;-80
2021/08/01 08:50:49;;;;;;;11.38;8.00;;;;;;;17.57;92.45;101037.81;6213342;23;20016;-79
2021/08/01 08:53:40;;;;;;;10.23;7.50;;;;;;;17.83;92.48;101037.53;6214529;23;20015;-79
2021/08/01 08:56:24;;;;;;;12.00;7.55;;;;;;;18.46;91.41;101027.97;6212412;23;20376;-83
2021/08/01 08:58:52;;;;;;;10.32;6.50;;;;;;;19.09;88.84;101030.66;6214591;23;20005;-77
2021/08/01 09:01:36;;;;;;;9.68;6.03;;;;;;;19.15;83.64;101020.78;6214047;23;20005;-82
2021/08/01 09:04:02;;;;;;;9.38;5.85;;;;;;;18.90;83.77;101019.41;6215701;23;20005;-80
2021/08/01 09:06:30;;;;;;;10.27;6.57;;;;;;;18.74;86.55;101038.25;6214136;23;20412;-79
2021/08/01 09:08:56;;;;;;;9.30;6.32;;;;;;;18.79;87.94;101039.06;6214005;23;20016;-82
2021/08/01 09:11:21;;;;;;;6.57;5.55;;;;;;;19.00;86.26;101037.00;6188759;23;20446;-79
2021/08/01 09:13:57;;;;;;;10.27;6.57;;;;;;;19.16;86.11;101037.66;6212807;23;20401;-78
2021/08/01 09:16:42;;;;;;;9.60;6.90;;;;;;;18.96;84.31;101035.28;6214437;23;20008;-80
2021/08/01 09:19:49;;;;;;;11.70;5.93;;;;;;;18.90;85.32;101041.59;6214379;23;20008;-79
2021/08/01 09:22:20;;;;;;;9.20;5.80;;;;;;;18.73;85.22;101036.47;6215170;23;20016;-80
2021/08/01 09:24:51;;;;;;;10.75;6.53;;;;;;;18.52;86.49;101045.66;6214487;23;20001;-82
2021/08/01 09:27:32;;;;;;;10.25;6.78;;;;;;;18.37;87.58;101044.06;6213823;23;20012;-77
2021/08/01 09:30:01;;;;;;;11.38;7.60;;;;;;;18.24;87.39;101053.13;6214375;23;20019;-80
2021/08/01 09:32:50;;;;;;;9.25;6.28;;;;;;;18.13;86.06;101043.44;6214875;23;20001;-78
2021/08/01 09:35:17;;;;;;;7.30;6.25;;;;;;;18.10;87.46;101048.81;6191499;23;20047;-78
2021/08/01 09:37:42;;;;;;;10.23;7.18;;;;;;;18.02;85.52;101040.03;6213653;23;20004;-83
2021/08/01 09:40:11;;;;;;;7.60;6.53;;;;;;;18.22;88.57;101052.22;6214566;23;20024;-83
2021/08/01 09:42:44;;;;;;;7.88;6.30;;;;;;;19.24;86.53;101056.22;6214008;23;20340;-79
2021/08/01 09:45:32;;;;;;;5.93;5.32;;;;;;;20.48;79.66;101037.00;6213354;23;20424;-81
2021/08/01 09:48:21;;;;;;;10.18;4.70;;;;;;;21.37;74.53;101019.81;6213304;23;20011;-78
2021/08/01 09:51:07;;;;;;;4.65;4.25;;;;;;;22.52;74.45;101034.53;6210067;23;20075;-79
2021/08/01 09:53:34;;;;;;;5.35;3.78;;;;;;;22.83;66.24;101017.50;6214394;23;20011;-80
2021/08/01 09:56:09;;;;;;;4.55;3.85;;;;;;;22.94;65.98;101029.66;6214991;23;20432;-80
2021/08/01 09:58:37;;;;;;;4.80;3.50;;;;;;;22.74;69.11;101039.25;6213730;23;20122;-80
2021/08/01 10:01:23;;;;;;;4.55;3.40;;;;;;;22.33;67.02;101028.81;6214780;23;20013;-83
2021/08/01 10:03:49;;;;;;;9.00;4.10;;;;;;;21.94;67.51;101038.88;6213557;23;20011;-80
2021/08/01 10:06:20;;;;;;;6.18;4.55;;;;;;;21.58;71.66;101044.28;6188114;23;20032;-82
2021/08/01 10:08:47;;;;;;;4.40;3.90;;;;;;;21.51;70.50;101038.19;6213800;23;20009;-83
2021/08/01 10:11:33;;;;;;;4.43;4.03;;;;;;;22.19;69.74;101037.25;6214786;23;20000;-83
2021/08/01 10:14:19;;;;;;;5.57;3.75;;;;;;;23.12;67.19;101038.94;6212965;23;20032;-79
2021/08/01 10:17:05;;;;;;;5.40;3.70;;;;;;;23.77;60.81;101015.28;6213254;23;20355;-79
2021/08/01 10:19:31;;;;;;;3.78;2.75;;;;;;;23.66;61.85;101021.03;6213503;23;20092;-81
2021/08/01 10:22:03;;;;;;;5.80;3.30;;;;;;;23.55;62.47;101016.91;6214601;23;20436;-81
2021/08/01 10:25:00;;;;;;;3.10;2.83;;;;;;;22.99;59.29;101011.63;6214046;23;20482;-82
2021/08/01 10:27:26;;;;;;;3.95;3.03;;;;;;;22.44;62.12;101024.97;6214282;23;20008;-78
2021/08/01 10:29:53;;;;;;;3.70;2.80;;;;;;;22.32;62.90;101032.41;6214966;23;20027;-82
2021/08/01 10:33:01;;;;;;;5.18;2.85;;;;;;;22.01;64.23;101037.78;6216745;23;20004;-78
2021/08/01 10:35:29;;;;;;;3.58;2.60;;;;;;;21.97;66.86;101041.47;6217496;23;20008;-82
2021/08/01 10:38:16;;;;;;;3.08;2.38;;;;;;;22.03;63.99;101031.44;6190771;23;20015;-86
2021/08/01 10:40:41;;;;;;;4.38;2.03;;;;;;;22.13;63.95;101036.56;6216065;23;20014;-78
2021/08/01 10:43:29;;;;;;;4.75;2.50;;;;;;;22.20;66.21;101055.06;6217887;23;20343;-81
2021/08/01 10:46:19;;;;;;;3.65;2.60;;;;;;;22.01;63.35;101040.44;6220019;23;20462;-80
2021/08/01 10:48:46;;;;;;;5.28;2.60;;;;;;;21.39;61.94;101031.34;6222314;23;20457;-79
2021/08/01 10:51:15;;;;;;;3.78;2.90;;;;;;;21.15;69.64;101063.16;6223556;23;20008;-79
2021/08/01 10:53:41;;;;;;;3.25;2.40;;;;;;;21.10;65.65;101043.66;6219679;23;20004;-81
2021/08/01 10:56:06;;;;;;;6.07;3.10;;;;;;;21.18;66.70;101057.72;6215164;23;20404;-78
2021/08/01 10:58:40;;;;;;;4.57;3.10;;;;;;;21.05;64.87;101056.25;6216984;23;20028;-78
2021/08/01 11:01:07;;;;;;;6.35;2.75;;;;;;;20.78;64.93;101042.63;6213377;23;20091;-77
2021/08/01 11:04:12;;;;;;;6.22;3.15;;;;;;;20.95;68.46;101052.06;6216835;23;20397;-77
2021/08/01 11:06:44;;;;;;;6.82;3.20;;;;;;;21.09;67.75;101065.97;6189174;23;20008;-78
2021/08/01 11:09:29;;;;;;;8.35;3.13;;;;;;;21.19;66.95;101059.50;6214994;23;20005;-78
2021/08/01 11:12:19;;;;;;;4.20;2.58;;;;;;;21.63;63.11;101053.97;6213439;23;20016;-78
2021/08/01 11:15:06;;;;;;;9.23;2.80;;;;;;;21.71;64.77;101059.13;6212329;23;20087;-83
2021/08/01 11:17:40;;;;;;;4.82;2.55;;;;;;;22.06;62.57;101041.22;6215317;23;20005;-80
2021/08/01 11:20:29;;;;;;;6.63;2.58;;;;;;;22.11;63.42;101055.38;6215148;23;20004;-77
2021/08/01 11:22:56;;;;;;;3.70;2.55;;;;;;;22.49;62.46;101055.19;6198053;23;20023;-79
2021/08/01 11:25:32;;;;;;;6.43;2.53;;;;;;;23.20;57.78;101037.78;6216015;23;20019;-81
2021/08/01 11:28:12;;;;;;;4.88;2.40;;;;;;;23.07;58.80;101052.50;6217846;23;20001;-79
2021/08/01 11:30:52;;;;;;;4.38;2.45;;;;;;;22.09;59.66;101049.16;6217040;23;20024;-78
2021/08/01 11:33:27;;;;;;;5.40;2.97;;;;;;;21.93;64.71;101061.22;6216815;23;20004;-81
2021/08/01 11:36:16;;;;;;;4.75;2.38;;;;;;;22.00;63.60;101057.44;6188982;23;20012;-80
2021/08/01 11:38:53;;;;;;;4.78;2.67;;;;;;;22.39;61.24;101065.31;6215889;23;20008;-81
2021/08/01 11:41:28;;;;;;;4.78;3.05;;;;;;;22.51;61.16;101059.59;6216376;23;20010;-81
2021/08/01 11:44:21;;;;;;;6.82;3.10;;;;;;;22.30;58.83;101060.19;6207552;23;20001;-82
2021/08/01 11:46:47;;;;;;;4.70;2.92;;;;;;;21.92;64.49;101080.91;6187833;23;20348;-78
2021/08/01 11:49:17;;;;;;;4.00;2.78;;;;;;;21.93;63.28;101082.66;6209043;23;20334;-78
2021/08/01 11:51:44;;;;;;;5.20;2.80;;;;;;;21.88;61.11;101074.72;6213512;23;20091;-80